Time;durP1;ratioP1;P1;durP2;ratioP2;P2;SDS_P1;SDS_P2;PMS_P1;PMS_P2;Temp;Humidity;BMP_temperature;BMP_pressure;BME280_temperature;BME280_humidity;BME280_pressure;Samples;Min_cycle;Max_cycle;Signal;HPM_P1;HPM_P2
2020/12/20 00:01:15;;;;;;;9.20;3.72;;;9.10;82.90;;;;;;5007964;28;20060;-86
2020/12/20 00:03:41;;;;;;;5.40;2.72;;;9.10;82.90;;;;;;5008242;28;20030;-85
2020/12/20 00:06:07;;;;;;;6.82;2.65;;;9.10;82.90;;;;;;5024271;28;20038;-86
2020/12/20 00:08:33;;;;;;;9.15;3.67;;;9.10;82.90;;;;;;5007675;28;20370;-85
2020/12/20 00:10:59;;;;;;;10.23;3.10;;;9.10;83.00;;;;;;4991998;28;20040;-85
2020/12/20 00:13:25;;;;;;;7.05;2.78;;;9.10;83.00;;;;;;5007992;28;20458;-85
2020/12/20 00:15:51;;;;;;;5.05;2.42;;;9.00;82.80;;;;;;5008104;28;20037;-87
2020/12/20 00:18:16;;;;;;;4.95;2.35;;;9.00;83.30;;;;;;4991356;28;20115;-86
2020/12/20 00:20:42;;;;;;;7.28;2.60;;;9.00;82.80;;;;;;5008041;28;20507;-86
2020/12/20 00:23:08;;;;;;;6.00;2.42;;;9.00;82.80;;;;;;4991731;28;20038;-87
2020/12/20 00:25:34;;;;;;;6.45;2.38;;;9.10;83.00;;;;;;5024401;28;20057;-88
2020/12/20 00:28:00;;;;;;;9.85;3.13;;;9.00;82.80;;;;;;5024765;28;20136;-86
2020/12/20 00:30:26;;;;;;;9.18;3.05;;;9.00;82.80;;;;;;4991917;28;20033;-88
2020/12/20 00:32:52;;;;;;;10.73;3.33;;;9.00;82.80;;;;;;5007412;28;20064;-86
2020/12/20 00:35:18;;;;;;;6.72;2.35;;;9.00;82.80;;;;;;5008305;28;20052;-87
2020/12/20 00:37:44;;;;;;;4.43;2.70;;;9.00;82.80;;;;;;5007760;28;20544;-86
2020/12/20 00:40:10;;;;;;;4.45;2.38;;;9.00;82.80;;;;;;5007465;28;20030;-85
2020/12/20 00:42:36;;;;;;;8.73;2.80;;;9.00;82.80;;;;;;5007306;28;20497;-87
2020/12/20 00:45:04;;;;;;;4.05;1.92;;;9.00;82.80;;;;;;4991493;28;20075;-86
2020/12/20 00:47:30;;;;;;;5.95;2.20;;;9.00;82.80;;;;;;5006956;28;20065;-86
2020/12/20 00:49:56;;;;;;;7.43;2.65;;;9.00;82.80;;;;;;4991083;28;20044;-87
2020/12/20 00:52:22;;;;;;;5.78;2.42;;;9.00;82.80;;;;;;5006884;28;20069;-85
2020/12/20 00:54:52;;;;;;;6.38;2.47;;;9.00;82.70;;;;;;4991388;28;20026;-85
2020/12/20 00:57:18;;;;;;;10.18;2.70;;;9.00;82.70;;;;;;4990805;28;20030;-86
2020/12/20 00:59:44;;;;;;;4.15;2.30;;;8.90;82.60;;;;;;4990025;28;20038;-85
2020/12/20 01:02:10;;;;;;;5.75;2.28;;;8.90;82.60;;;;;;5007424;28;20033;-84
2020/12/20 01:04:37;;;;;;;10.25;2.40;;;8.90;82.60;;;;;;4991284;28;20034;-84
2020/12/20 01:07:03;;;;;;;5.95;1.85;;;8.90;82.60;;;;;;5007168;28;20038;-84
2020/12/20 01:09:33;;;;;;;5.53;2.42;;;8.90;82.60;;;;;;4990986;28;20036;-84
2020/12/20 01:12:01;;;;;;;3.33;1.92;;;8.90;82.60;;;;;;5007400;28;20030;-84
2020/12/20 01:14:47;;;;;;;9.23;2.58;;;8.90;82.60;;;;;;5020830;28;20022;-84
2020/12/20 01:17:14;;;;;;;8.65;2.47;;;8.90;82.60;;;;;;4990358;28;20037;-84
2020/12/20 01:19:45;;;;;;;8.68;2.58;;;8.90;82.60;;;;;;5006639;28;20108;-85
2020/12/20 01:22:11;;;;;;;8.23;2.40;;;8.90;82.60;;;;;;5006525;28;20124;-84
2020/12/20 01:24:38;;;;;;;9.20;2.83;;;8.80;82.50;;;;;;5008546;28;20061;-85
2020/12/20 01:27:11;;;;;;;5.50;2.30;;;8.80;82.50;;;;;;4994714;28;20123;-84
2020/12/20 01:29:38;;;;;;;7.68;2.60;;;8.80;82.50;;;;;;5010133;28;20244;-85
2020/12/20 01:32:04;;;;;;;6.85;2.72;;;8.80;82.50;;;;;;5010656;28;20042;-84
2020/12/20 01:34:32;;;;;;;5.47;2.67;;;8.80;82.60;;;;;;5010475;28;20029;-84
2020/12/20 01:36:58;;;;;;;5.82;2.13;;;8.70;82.40;;;;;;5010284;28;20481;-84
2020/12/20 01:39:27;;;;;;;4.00;2.22;;;8.70;82.40;;;;;;5010044;28;20053;-84
2020/12/20 01:41:54;;;;;;;7.25;2.92;;;8.70;82.40;;;;;;5009827;28;20033;-84
2020/12/20 01:44:30;;;;;;;5.32;2.15;;;8.70;82.40;;;;;;5010398;28;20036;-87
2020/12/20 01:46:56;;;;;;;8.77;2.88;;;8.70;82.50;;;;;;5010149;28;20500;-87
2020/12/20 01:49:23;;;;;;;12.45;2.90;;;8.70;82.50;;;;;;5010366;28;20596;-87
2020/12/20 01:51:51;;;;;;;8.35;2.20;;;8.70;82.50;;;;;;4994262;28;20171;-88
2020/12/20 01:54:20;;;;;;;5.82;2.10;;;8.70;82.50;;;;;;4994531;28;20026;-86
2020/12/20 01:57:22;;;;;;;3.75;2.53;;;8.60;82.30;;;;;;4999654;28;20038;-87
2020/12/20 02:00:16;;;;;;;4.50;2.03;;;8.60;82.30;;;;;;5001035;28;20429;-86
2020/12/20 02:02:54;;;;;;;7.57;2.55;;;8.60;82.20;;;;;;5006219;28;20473;-87
2020/12/20 02:05:21;;;;;;;6.68;2.63;;;8.70;82.40;;;;;;4997913;28;20025;-87
2020/12/20 02:07:50;;;;;;;4.68;2.35;;;8.60;82.20;;;;;;5011829;28;20021;-86
2020/12/20 02:10:17;;;;;;;4.40;1.77;;;8.60;82.20;;;;;;5011682;28;20041;-87
2020/12/20 02:12:46;;;;;;;9.15;2.17;;;8.60;82.60;;;;;;5010158;28;20026;-86
2020/12/20 02:15:19;;;;;;;4.57;2.03;;;8.60;82.20;;;;;;4995102;28;20053;-84
2020/12/20 02:17:47;;;;;;;8.25;2.72;;;8.60;82.20;;;;;;4993404;28;20223;-84
2020/12/20 02:20:13;;;;;;;8.85;2.53;;;8.60;82.20;;;;;;4993171;28;20041;-84
2020/12/20 02:23:01;;;;;;;4.60;2.10;;;8.60;82.20;;;;;;5009441;28;20058;-83
2020/12/20 02:25:35;;;;;;;;;;;8.60;82.20;;;;;;5010124;28;20540;-85
2020/12/20 02:28:19;;;;;;;10.35;2.60;;;8.60;82.30;;;;;;5009427;28;19964;-86
2020/12/20 02:30:45;;;;;;;5.15;2.40;;;8.50;82.00;;;;;;4992998;28;20087;-85
2020/12/20 02:33:19;;;;;;;9.30;2.20;;;8.60;82.20;;;;;;5009974;28;20099;-87
2020/12/20 02:35:45;;;;;;;3.67;1.75;;;8.50;82.20;;;;;;5007803;28;20038;-84
2020/12/20 02:38:11;;;;;;;5.00;2.60;;;8.50;82.10;;;;;;5009162;28;20034;-85
2020/12/20 02:40:41;;;;;;;9.05;2.33;;;8.50;82.20;;;;;;4993254;28;20026;-85
2020/12/20 02:43:09;;;;;;;6.05;2.63;;;8.50;82.20;;;;;;5008939;28;20083;-87
2020/12/20 02:45:35;;;;;;;6.05;2.75;;;8.40;82.00;;;;;;4993148;28;20034;-86
2020/12/20 02:48:02;;;;;;;10.40;2.58;;;8.40;82.10;;;;;;5007771;28;20064;-83
2020/12/20 02:50:33;;;;;;;6.70;2.35;;;8.40;82.10;;;;;;5012491;28;20029;-82
2020/12/20 02:52:59;;;;;;;5.70;1.98;;;8.40;82.10;;;;;;4999638;28;20030;-83
2020/12/20 02:55:27;;;;;;;6.05;2.47;;;8.40;82.10;;;;;;4992621;28;20026;-83
2020/12/20 02:58:05;;;;;;;4.65;2.10;;;8.40;82.10;;;;;;4994869;28;20041;-83
2020/12/20 03:00:44;;;;;;;5.22;2.72;;;8.40;82.10;;;;;;4992982;28;20030;-84
2020/12/20 03:03:13;;;;;;;7.97;2.53;;;8.40;82.10;;;;;;4992865;28;20053;-83
2020/12/20 03:05:43;;;;;;;5.18;2.33;;;8.40;82.20;;;;;;4992633;28;20022;-83
2020/12/20 03:08:09;;;;;;;11.85;2.85;;;8.40;82.20;;;;;;4992516;28;20030;-83
2020/12/20 03:10:36;;;;;;;7.60;2.33;;;8.40;82.20;;;;;;4992952;28;20050;-84
2020/12/20 03:13:03;;;;;;;8.30;2.13;;;8.40;82.20;;;;;;4976659;28;20033;-84
2020/12/20 03:15:34;;;;;;;4.07;1.90;;;8.40;82.10;;;;;;4993080;28;20481;-84
2020/12/20 03:18:00;;;;;;;5.68;2.05;;;8.40;82.10;;;;;;4992958;28;20061;-84
2020/12/20 03:20:27;;;;;;;4.47;1.75;;;8.40;82.10;;;;;;4992915;28;20494;-83
2020/12/20 03:22:55;;;;;;;6.00;2.58;;;8.40;82.10;;;;;;4992843;28;20046;-84
2020/12/20 03:25:47;;;;;;;4.13;1.63;;;8.30;81.90;;;;;;4993104;28;20159;-85
2020/12/20 03:28:22;;;;;;;10.15;2.80;;;8.30;82.00;;;;;;4992711;28;20037;-85
2020/12/20 03:31:17;;;;;;;4.43;2.40;;;8.30;82.00;;;;;;4985214;28;20041;-85
2020/12/20 03:34:06;;;;;;;6.05;2.00;;;8.30;82.00;;;;;;5000621;28;20044;-84
2020/12/20 03:36:46;;;;;;;3.78;2.30;;;8.30;82.00;;;;;;4992606;28;20092;-83
2020/12/20 03:39:15;;;;;;;9.15;2.67;;;8.30;82.00;;;;;;4992361;28;20049;-85
2020/12/20 03:41:42;;;;;;;2.72;1.80;;;8.30;82.00;;;;;;4991158;28;20037;-84
2020/12/20 03:44:18;;;;;;;3.17;1.40;;;8.20;81.80;;;;;;4991009;28;20037;-83
2020/12/20 03:46:44;;;;;;;8.85;2.15;;;8.30;82.00;;;;;;4990599;28;20074;-83
2020/12/20 03:49:10;;;;;;;5.13;2.50;;;8.20;81.90;;;;;;4991080;28;20132;-85
2020/12/20 03:51:37;;;;;;;6.05;2.40;;;8.20;81.90;;;;;;4991601;28;20026;-83
2020/12/20 03:54:03;;;;;;;3.55;2.13;;;8.20;81.90;;;;;;4975409;28;20153;-85
2020/12/20 03:56:30;;;;;;;2.53;1.65;;;8.20;81.90;;;;;;5007432;28;20108;-82
2020/12/20 03:59:10;;;;;;;7.97;2.58;;;8.20;81.90;;;;;;5006494;28;20078;-85
2020/12/20 04:01:36;;;;;;;7.25;2.42;;;8.20;81.90;;;;;;5011893;28;20176;-84
2020/12/20 04:04:03;;;;;;;5.70;2.22;;;8.20;82.00;;;;;;4995736;28;20026;-84
2020/12/20 04:06:30;;;;;;;6.50;2.20;;;8.20;82.00;;;;;;5012076;28;20033;-85
2020/12/20 04:08:56;;;;;;;5.60;2.67;;;8.20;82.00;;;;;;5011551;28;20477;-85
2020/12/20 04:11:40;;;;;;;;;;;8.20;82.00;;;;;;5012617;28;20052;-85
2020/12/20 04:14:07;;;;;;;4.10;1.92;;;8.20;82.00;;;;;;5011375;28;19920;-85
2020/12/20 04:16:36;;;;;;;4.18;2.05;;;8.20;81.90;;;;;;4995809;28;20029;-85
2020/12/20 04:19:02;;;;;;;5.95;1.92;;;8.20;81.90;;;;;;4995548;28;20044;-84
2020/12/20 04:21:31;;;;;;;4.45;1.88;;;8.20;81.90;;;;;;5012111;28;20038;-85
2020/12/20 04:23:58;;;;;;;5.95;2.15;;;8.20;81.90;;;;;;5028197;28;20081;-84
2020/12/20 04:26:26;;;;;;;5.07;1.95;;;8.20;81.90;;;;;;5011503;28;20105;-84
2020/12/20 04:29:11;;;;;;;7.25;1.95;;;8.10;81.70;;;;;;5011451;28;20058;-84
2020/12/20 04:31:42;;;;;;;7.13;2.33;;;8.10;81.70;;;;;;5011803;28;20492;-87
2020/12/20 04:34:11;;;;;;;4.88;2.10;;;8.10;81.70;;;;;;5011548;28;20095;-87
2020/12/20 04:36:38;;;;;;;9.15;2.30;;;8.10;81.70;;;;;;5011504;28;20022;-86
2020/12/20 04:39:24;;;;;;;4.38;2.00;;;8.10;81.70;;;;;;4981368;28;20524;-83
2020/12/20 04:41:51;;;;;;;7.00;2.30;;;8.10;81.70;;;;;;5011682;28;20113;-86
2020/12/20 04:44:17;;;;;;;8.07;2.20;;;8.10;81.70;;;;;;5011727;28;20044;-84
2020/12/20 04:46:49;;;;;;;5.53;2.33;;;8.10;81.70;;;;;;5011123;28;20036;-84
2020/12/20 04:49:31;;;;;;;3.30;1.75;;;8.00;81.60;;;;;;5011101;28;20044;-84
2020/12/20 04:52:03;;;;;;;4.00;1.83;;;8.00;81.60;;;;;;5011093;28;20030;-84
2020/12/20 04:54:33;;;;;;;4.78;1.60;;;8.00;81.60;;;;;;5010941;28;20034;-84
2020/12/20 04:57:02;;;;;;;7.53;2.85;;;8.00;81.60;;;;;;4995694;28;20049;-85
2020/12/20 04:59:36;;;;;;;4.63;2.03;;;8.00;81.60;;;;;;4996966;28;20113;-85
2020/12/20 05:02:06;;;;;;;3.72;1.65;;;8.00;81.60;;;;;;5015833;28;20080;-88
2020/12/20 05:04:34;;;;;;;3.42;1.85;;;7.90;81.50;;;;;;5015497;28;20041;-86
2020/12/20 05:07:05;;;;;;;6.72;2.30;;;7.90;81.50;;;;;;5015328;28;20029;-88
2020/12/20 05:09:48;;;;;;;5.65;2.35;;;7.90;81.50;;;;;;5014507;28;20034;-87
2020/12/20 05:12:30;;;;;;;3.38;1.60;;;7.90;81.50;;;;;;5015073;28;20033;-87
2020/12/20 05:15:20;;;;;;;5.18;1.83;;;7.90;81.50;;;;;;4995199;28;20121;-85
2020/12/20 05:18:03;;;;;;;7.45;2.38;;;7.90;81.50;;;;;;5001959;28;20049;-85
2020/12/20 05:20:47;;;;;;;2.72;1.55;;;7.90;81.60;;;;;;5014117;28;20443;-84
2020/12/20 05:23:16;;;;;;;6.65;2.22;;;7.90;81.50;;;;;;4994227;28;20018;-84
2020/12/20 05:25:43;;;;;;;3.78;2.08;;;7.90;81.50;;;;;;4995644;28;20036;-84
2020/12/20 05:28:15;;;;;;;5.45;1.80;;;7.90;81.50;;;;;;5004944;28;20026;-85
2020/12/20 05:30:48;;;;;;;5.32;1.77;;;7.90;81.50;;;;;;4994984;28;20034;-82
2020/12/20 05:33:38;;;;;;;4.75;1.92;;;7.80;81.30;;;;;;4995016;28;20045;-85
2020/12/20 05:36:11;;;;;;;5.82;2.00;;;7.80;81.30;;;;;;5011350;28;20445;-86
2020/12/20 05:38:42;;;;;;;2.78;1.90;;;7.80;81.30;;;;;;4995006;28;20077;-87
2020/12/20 05:41:27;;;;;;;3.60;1.90;;;7.80;81.40;;;;;;5011656;28;20474;-86
2020/12/20 05:43:53;;;;;;;6.28;1.98;;;7.80;81.40;;;;;;5011573;28;20102;-87
2020/12/20 05:46:26;;;;;;;6.65;2.60;;;7.80;81.40;;;;;;5011016;28;20057;-86
2020/12/20 05:49:15;;;;;;;6.65;2.22;;;7.80;81.40;;;;;;4996514;28;20660;-87
2020/12/20 05:52:20;;;;;;;6.20;2.35;;;7.70;81.30;;;;;;5007318;28;20034;-85
2020/12/20 05:54:46;;;;;;;2.95;1.58;;;7.70;81.30;;;;;;4970246;28;20439;-88
2020/12/20 05:57:20;;;;;;;4.65;2.35;;;7.70;81.20;;;;;;4953476;28;20142;-87
2020/12/20 05:59:47;;;;;;;;;;;7.70;81.20;;;;;;4981099;28;20049;-86
2020/12/20 06:02:14;;;;;;;3.90;1.55;;;7.70;81.20;;;;;;5009782;28;20277;-86
2020/12/20 06:04:41;;;;;;;6.05;2.33;;;7.70;81.20;;;;;;5009325;28;20068;-85
2020/12/20 06:07:09;;;;;;;6.72;2.20;;;7.70;81.20;;;;;;5009509;28;20029;-85
2020/12/20 06:09:54;;;;;;;5.45;1.98;;;7.60;81.00;;;;;;5009450;28;20148;-85
2020/12/20 06:12:28;;;;;;;5.75;1.83;;;7.60;81.10;;;;;;5009974;28;20478;-85
2020/12/20 06:14:55;;;;;;;6.22;1.80;;;7.60;81.10;;;;;;5010317;28;20107;-84
2020/12/20 06:17:23;;;;;;;11.63;2.17;;;7.60;81.20;;;;;;5009808;28;20140;-86
2020/12/20 06:20:00;;;;;;;4.80;1.98;;;7.60;81.20;;;;;;5008762;28;20452;-85
2020/12/20 06:22:27;;;;;;;4.57;2.03;;;7.60;81.20;;;;;;4993437;28;20509;-86
2020/12/20 06:24:59;;;;;;;6.07;2.28;;;7.70;81.40;;;;;;4999515;28;20027;-84
2020/12/20 06:27:27;;;;;;;2.30;1.70;;;7.70;81.40;;;;;;5006223;28;20034;-85
2020/12/20 06:29:56;;;;;;;6.13;2.20;;;7.70;81.40;;;;;;5009256;28;20040;-86
2020/12/20 06:32:38;;;;;;;6.05;2.38;;;7.70;81.40;;;;;;5009374;28;20036;-86
2020/12/20 06:35:25;;;;;;;6.43;1.95;;;7.70;81.30;;;;;;5008777;28;20056;-84
2020/12/20 06:37:52;;;;;;;3.17;2.08;;;7.70;81.30;;;;;;5008780;28;20033;-87
2020/12/20 06:40:30;;;;;;;11.65;2.53;;;7.70;81.30;;;;;;5009602;28;20022;-87
2020/12/20 06:42:57;;;;;;;5.60;2.10;;;7.70;81.30;;;;;;5005832;28;20038;-85
2020/12/20 06:45:25;;;;;;;7.13;2.33;;;7.70;81.20;;;;;;5025806;28;20026;-88
2020/12/20 06:47:52;;;;;;;2.58;1.58;;;7.70;81.30;;;;;;5007201;28;20367;-87
2020/12/20 06:50:41;;;;;;;7.10;1.63;;;7.70;81.30;;;;;;5005738;28;20113;-88
2020/12/20 06:53:16;;;;;;;4.03;1.80;;;7.70;81.30;;;;;;5005789;28;20376;-87
2020/12/20 06:55:42;;;;;;;5.88;2.22;;;7.60;81.10;;;;;;4989599;28;20493;-86
2020/12/20 06:58:09;;;;;;;5.95;2.22;;;7.60;81.10;;;;;;5009188;28;20128;-86
2020/12/20 07:00:54;;;;;;;5.95;2.05;;;7.60;81.10;;;;;;5008465;28;20567;-87
2020/12/20 07:03:32;;;;;;;3.65;2.33;;;7.60;81.20;;;;;;5008260;28;20040;-87
2020/12/20 07:06:19;;;;;;;1.70;1.30;;;7.60;81.10;;;;;;5009828;28;20030;-83
2020/12/20 07:09:00;;;;;;;7.55;2.15;;;7.60;81.10;;;;;;5008724;28;20037;-88
2020/12/20 07:11:27;;;;;;;4.45;1.63;;;7.60;81.20;;;;;;5025109;28;20030;-85
2020/12/20 07:13:55;;;;;;;4.72;2.08;;;7.60;81.20;;;;;;5009416;28;20025;-85
2020/12/20 07:16:43;;;;;;;3.40;2.05;;;7.60;81.20;;;;;;5024847;28;20041;-84
2020/12/20 07:19:11;;;;;;;5.55;2.10;;;7.60;81.20;;;;;;5008432;28;20041;-88
2020/12/20 07:21:53;;;;;;;6.85;1.83;;;7.50;81.10;;;;;;5025495;28;20277;-86
2020/12/20 07:24:22;;;;;;;3.83;2.05;;;7.50;81.10;;;;;;5009103;28;20026;-88
2020/12/20 07:26:53;;;;;;;4.07;1.75;;;7.50;81.10;;;;;;5009688;28;20041;-88
2020/12/20 07:29:20;;;;;;;7.38;1.67;;;7.60;81.30;;;;;;5009847;28;20229;-86
2020/12/20 07:31:51;;;;;;;5.57;2.30;;;7.50;81.10;;;;;;5010616;28;20162;-88
2020/12/20 07:34:17;;;;;;;4.40;2.25;;;7.60;81.30;;;;;;5009758;28;20044;-87
2020/12/20 07:36:45;;;;;;;3.20;1.60;;;7.60;81.30;;;;;;5012645;28;20078;-86
2020/12/20 07:39:12;;;;;;;4.30;2.03;;;7.60;81.30;;;;;;5013607;28;20038;-84
2020/12/20 07:41:37;;;;;;;2.30;1.63;;;7.60;81.30;;;;;;5025384;28;20022;-91
2020/12/20 07:44:05;;;;;;;6.57;2.03;;;7.60;81.30;;;;;;5008581;28;20026;-87
2020/12/20 07:46:31;;;;;;;2.55;1.90;;;7.70;81.50;;;;;;5007216;28;20057;-86
2020/12/20 07:49:07;;;;;;;7.00;2.22;;;7.70;81.40;;;;;;5007614;28;20068;-89
2020/12/20 07:51:34;;;;;;;4.45;1.80;;;7.70;81.40;;;;;;5000150;28;20033;-87
2020/12/20 07:54:01;;;;;;;8.05;2.00;;;7.70;81.40;;;;;;4992100;28;20038;-88
2020/12/20 07:56:46;;;;;;;3.70;1.50;;;7.70;81.40;;;;;;5007903;28;20116;-85
2020/12/20 07:59:15;;;;;;;2.88;1.83;;;7.70;81.40;;;;;;5008683;28;20038;-86
2020/12/20 08:01:44;;;;;;;9.10;2.13;;;7.70;81.30;;;;;;4991461;28;20048;-86
2020/12/20 08:04:12;;;;;;;6.03;2.53;;;7.70;81.30;;;;;;5013149;28;20036;-83
2020/12/20 08:06:39;;;;;;;4.40;1.77;;;7.80;81.50;;;;;;4996730;28;20034;-84
2020/12/20 08:09:13;;;;;;;3.05;1.98;;;7.80;81.50;;;;;;5007446;28;20045;-85
2020/12/20 08:11:41;;;;;;;3.30;1.98;;;7.80;81.40;;;;;;5008838;28;20080;-86
2020/12/20 08:14:09;;;;;;;4.65;1.85;;;7.80;81.40;;;;;;5007379;28;20053;-85
2020/12/20 08:16:38;;;;;;;5.25;2.28;;;7.80;81.40;;;;;;5007849;28;20046;-85
2020/12/20 08:19:09;;;;;;;8.80;2.47;;;7.80;81.40;;;;;;5007525;28;20358;-84
2020/12/20 08:21:47;;;;;;;2.10;1.48;;;7.80;81.40;;;;;;4987595;28;20516;-85
2020/12/20 08:24:14;;;;;;;2.47;1.60;;;7.80;81.40;;;;;;4988001;28;20046;-86
2020/12/20 08:26:42;;;;;;;4.45;2.17;;;7.80;81.40;;;;;;5004196;28;20030;-84
2020/12/20 08:29:10;;;;;;;11.48;2.25;;;7.80;81.40;;;;;;5007776;28;20029;-89
2020/12/20 08:31:37;;;;;;;4.13;2.33;;;7.80;81.40;;;;;;4991422;28;20053;-83
2020/12/20 08:34:20;;;;;;;3.50;1.55;;;7.80;81.40;;;;;;5006645;28;20234;-89
2020/12/20 08:36:49;;;;;;;6.38;2.80;;;7.80;81.40;;;;;;5007930;28;20034;-88
2020/12/20 08:39:15;;;;;;;7.22;2.17;;;7.80;81.40;;;;;;4991469;28;20053;-88
2020/12/20 08:41:41;;;;;;;5.07;2.10;;;7.80;81.40;;;;;;5007623;28;20465;-88
2020/12/20 08:44:13;;;;;;;4.03;1.33;;;7.80;81.40;;;;;;4991441;28;20133;-88
2020/12/20 08:46:41;;;;;;;3.88;1.80;;;7.80;81.40;;;;;;4991098;28;20040;-86
2020/12/20 08:49:13;;;;;;;6.65;2.05;;;7.90;81.60;;;;;;5007235;28;20085;-84
2020/12/20 08:51:39;;;;;;;6.68;2.50;;;7.90;81.60;;;;;;5024081;28;20130;-86
2020/12/20 08:54:05;;;;;;;8.85;2.22;;;7.90;81.60;;;;;;5006555;28;20049;-89
2020/12/20 08:56:31;;;;;;;4.75;1.85;;;7.90;81.60;;;;;;5008357;28;20051;-86
2020/12/20 08:58:58;;;;;;;11.23;1.70;;;7.90;81.60;;;;;;5022257;28;20042;-88
2020/12/20 09:01:40;;;;;;;6.28;2.22;;;8.00;81.80;;;;;;5005826;28;20046;-86
2020/12/20 09:04:10;;;;;;;4.35;1.65;;;8.00;81.70;;;;;;5008300;28;20528;-86
2020/12/20 09:06:36;;;;;;;7.18;2.13;;;8.10;81.90;;;;;;5023389;28;20117;-86
2020/12/20 09:09:03;;;;;;;3.72;1.67;;;8.10;81.80;;;;;;5006812;28;20403;-86
2020/12/20 09:11:29;;;;;;;6.63;1.80;;;8.20;82.00;;;;;;4981287;28;20030;-84
2020/12/20 09:13:55;;;;;;;5.00;1.77;;;8.20;82.00;;;;;;5003728;28;20493;-85
2020/12/20 09:16:21;;;;;;;4.93;2.22;;;8.20;82.00;;;;;;5003756;28;20096;-88
2020/12/20 09:18:47;;;;;;;7.65;2.53;;;8.30;82.20;;;;;;5013577;28;20034;-87
2020/12/20 09:21:26;;;;;;;3.72;1.65;;;8.40;82.30;;;;;;5007441;28;20030;-85
2020/12/20 09:23:59;;;;;;;5.78;2.38;;;8.40;82.30;;;;;;5003591;28;20045;-84
2020/12/20 09:26:25;;;;;;;8.02;1.80;;;8.50;82.40;;;;;;5003670;28;20031;-84
2020/12/20 09:28:50;;;;;;;3.22;1.60;;;8.50;82.30;;;;;;5013413;28;20108;-85
2020/12/20 09:31:19;;;;;;;6.28;2.13;;;8.50;82.20;;;;;;5006719;28;20030;-85
2020/12/20 09:33:49;;;;;;;5.57;1.98;;;8.60;82.40;;;;;;5006425;28;20131;-85
2020/12/20 09:36:20;;;;;;;8.30;2.05;;;8.60;82.30;;;;;;5006680;28;20042;-83
2020/12/20 09:38:50;;;;;;;3.85;1.67;;;8.70;82.50;;;;;;4989300;28;20517;-83
2020/12/20 09:41:21;;;;;;;6.80;2.05;;;8.70;82.50;;;;;;5007612;28;20030;-85
2020/12/20 09:43:49;;;;;;;6.53;1.65;;;8.70;82.40;;;;;;5002826;28;20026;-85
2020/12/20 09:46:23;;;;;;;5.50;2.00;;;8.80;82.50;;;;;;4987832;28;20129;-85
2020/12/20 09:48:50;;;;;;;4.38;1.60;;;8.80;82.50;;;;;;5003596;28;20129;-86
2020/12/20 09:51:18;;;;;;;5.00;2.00;;;8.80;82.40;;;;;;5022077;28;20079;-85
2020/12/20 09:53:45;;;;;;;5.45;1.63;;;8.80;82.90;;;;;;5023079;28;20057;-84
2020/12/20 09:56:12;;;;;;;4.90;1.88;;;8.90;82.50;;;;;;5002591;28;20022;-86
2020/12/20 09:58:39;;;;;;;4.32;1.77;;;8.90;82.50;;;;;;5004886;28;20207;-86
2020/12/20 10:01:05;;;;;;;2.58;1.80;;;8.90;82.50;;;;;;4974653;28;20105;-87
2020/12/20 10:03:31;;;;;;;6.93;2.03;;;9.00;82.70;;;;;;4974467;28;20089;-87
2020/12/20 10:05:58;;;;;;;3.53;1.67;;;9.00;82.70;;;;;;4990941;28;20038;-86
2020/12/20 10:08:26;;;;;;;4.97;1.90;;;9.10;82.90;;;;;;5001713;28;20112;-90
2020/12/20 10:10:55;;;;;;;4.68;1.92;;;9.20;83.00;;;;;;5008921;28;20044;-90
2020/12/20 10:13:22;;;;;;;6.25;2.03;;;9.30;83.10;;;;;;5010218;28;20389;-89
2020/12/20 10:15:49;;;;;;;4.88;1.92;;;9.40;83.20;;;;;;5008831;28;20493;-87
2020/12/20 10:18:15;;;;;;;5.80;2.50;;;9.50;83.20;;;;;;4995352;28;20049;-91
2020/12/20 10:20:41;;;;;;;6.55;2.22;;;9.60;83.20;;;;;;4990085;28;20038;-91
2020/12/20 10:23:07;;;;;;;4.45;2.08;;;9.60;83.10;;;;;;4993769;28;20631;-90
2020/12/20 10:25:33;;;;;;;5.03;1.60;;;9.70;83.20;;;;;;5000957;28;20477;-92
2020/12/20 10:27:59;;;;;;;2.95;1.60;;;9.70;83.10;;;;;;5001624;28;20161;-89
2020/12/20 10:30:26;;;;;;;3.22;1.30;;;9.70;83.00;;;;;;4992652;28;20030;-89
2020/12/20 10:32:54;;;;;;;4.45;1.58;;;9.80;83.10;;;;;;4993720;28;20148;-91
2020/12/20 10:35:23;;;;;;;4.43;1.88;;;9.80;83.10;;;;;;4994004;28;20057;-89
2020/12/20 10:37:54;;;;;;;4.57;1.73;;;9.80;83.10;;;;;;4993491;28;20044;-91
2020/12/20 10:40:20;;;;;;;5.05;2.03;;;9.80;83.10;;;;;;4993614;28;20349;-90
2020/12/20 10:42:47;;;;;;;6.47;3.20;;;9.80;83.10;;;;;;4993482;28;20029;-88
2020/12/20 10:45:13;;;;;;;16.77;8.13;;;9.90;83.30;;;;;;5010034;28;20490;-88
2020/12/20 10:47:40;;;;;;;13.38;5.03;;;9.90;83.30;;;;;;4993536;28;20061;-88
2020/12/20 10:50:06;;;;;;;12.18;4.60;;;10.00;83.50;;;;;;4993573;28;20505;-91
2020/12/20 10:52:32;;;;;;;10.90;5.15;;;10.10;83.70;;;;;;4995131;28;20030;-89
2020/12/20 10:55:00;;;;;;;12.43;6.18;;;10.10;83.50;;;;;;4992412;28;20037;-88
2020/12/20 10:57:27;;;;;;;12.27;5.57;;;10.20;83.70;;;;;;5005543;28;20058;-88
2020/12/20 10:59:53;;;;;;;11.68;5.78;;;10.20;84.10;;;;;;5008603;28;20034;-89
2020/12/20 11:02:19;;;;;;;12.98;5.15;;;10.20;83.60;;;;;;4992358;28;20076;-88
2020/12/20 11:04:46;;;;;;;9.70;5.45;;;10.20;83.50;;;;;;4990721;28;20029;-91
2020/12/20 11:07:12;;;;;;;11.75;5.05;;;10.20;83.40;;;;;;5008857;28;20033;-89
2020/12/20 11:09:39;;;;;;;14.45;5.72;;;10.20;83.40;;;;;;4992848;28;20029;-90
2020/12/20 11:12:05;;;;;;;12.05;4.75;;;10.20;83.40;;;;;;4992972;28;20388;-91
2020/12/20 11:14:32;;;;;;;6.68;4.00;;;10.30;83.50;;;;;;4993195;28;20084;-89
2020/12/20 11:16:59;;;;;;;12.30;5.07;;;10.30;83.60;;;;;;5009222;28;20124;-89
2020/12/20 11:19:26;;;;;;;12.32;4.22;;;10.30;83.50;;;;;;5001428;28;20046;-88
2020/12/20 11:21:54;;;;;;;11.52;4.35;;;10.30;83.40;;;;;;4989885;28;20113;-90
2020/12/20 11:24:21;;;;;;;7.63;4.28;;;10.40;83.60;;;;;;5005823;28;20173;-88
2020/12/20 11:26:49;;;;;;;8.82;4.20;;;10.40;83.50;;;;;;4989663;28;20026;-91
2020/12/20 11:29:16;;;;;;;9.77;3.80;;;10.40;83.40;;;;;;5019179;28;20485;-89
2020/12/20 11:31:44;;;;;;;8.10;4.10;;;10.40;83.40;;;;;;5008712;28;20133;-88
2020/12/20 11:34:10;;;;;;;8.40;3.75;;;10.40;83.30;;;;;;5009814;28;20032;-90
2020/12/20 11:36:38;;;;;;;9.05;4.07;;;10.50;83.40;;;;;;5010411;28;20037;-86
2020/12/20 11:39:06;;;;;;;6.63;3.67;;;10.40;83.20;;;;;;5011306;28;20037;-90
2020/12/20 11:41:33;;;;;;;8.50;3.17;;;10.40;83.10;;;;;;4994789;28;20026;-90
2020/12/20 11:44:00;;;;;;;9.85;4.00;;;10.50;83.30;;;;;;4993865;28;20105;-90
2020/12/20 11:46:27;;;;;;;7.60;3.55;;;10.50;83.20;;;;;;5008129;28;20041;-92
2020/12/20 11:48:53;;;;;;;6.47;3.15;;;10.50;83.20;;;;;;5008398;28;20064;-91
2020/12/20 11:51:21;;;;;;;8.65;3.42;;;10.50;83.20;;;;;;4992646;28;20048;-89
2020/12/20 11:53:47;;;;;;;7.10;2.90;;;10.60;83.30;;;;;;4991503;28;20042;-88
2020/12/20 11:56:15;;;;;;;10.05;3.50;;;10.60;83.80;;;;;;4991440;28;20025;-88
2020/12/20 11:58:42;;;;;;;12.43;7.57;;;10.60;83.20;;;;;;4998920;28;20037;-90
2020/12/20 12:01:09;;;;;;;8.25;5.20;;;10.60;83.20;;;;;;4975915;28;20053;-90
2020/12/20 12:03:35;;;;;;;12.02;5.28;;;10.60;83.20;;;;;;4993766;28;20044;-87
2020/12/20 12:06:02;;;;;;;12.80;4.72;;;10.60;83.20;;;;;;4992675;28;20064;-86
2020/12/20 12:08:28;;;;;;;10.05;4.68;;;10.60;83.20;;;;;;5020024;28;20045;-87
2020/12/20 12:10:54;;;;;;;11.55;4.70;;;10.60;83.10;;;;;;4989110;28;20550;-86
2020/12/20 12:13:21;;;;;;;10.38;4.22;;;10.60;83.10;;;;;;5002679;28;20096;-86
2020/12/20 12:15:47;;;;;;;9.27;4.18;;;10.60;83.10;;;;;;5013743;28;20393;-85
2020/12/20 12:18:13;;;;;;;10.30;4.65;;;10.60;83.10;;;;;;5009558;28;20061;-85
2020/12/20 12:20:39;;;;;;;8.65;4.15;;;10.50;82.90;;;;;;5002869;28;20045;-88
2020/12/20 12:23:05;;;;;;;3.80;3.50;;;10.60;83.00;;;;;;5002359;28;20034;-91
2020/12/20 12:25:32;;;;;;;6.63;4.32;;;10.60;83.10;;;;;;5008654;28;20041;-89
2020/12/20 12:27:58;;;;;;;10.82;4.95;;;10.60;83.10;;;;;;4992802;28;20433;-90
2020/12/20 12:30:24;;;;;;;5.85;4.13;;;10.60;83.00;;;;;;5009050;28;20524;-87
2020/12/20 12:32:52;;;;;;;8.85;3.58;;;10.60;83.00;;;;;;4999673;28;20026;-90
2020/12/20 12:35:22;;;;;;;7.97;3.50;;;10.50;82.70;;;;;;5016170;28;20093;-90
2020/12/20 12:37:50;;;;;;;5.38;3.25;;;10.50;82.70;;;;;;5016574;28;20040;-90
2020/12/20 12:40:18;;;;;;;6.18;3.15;;;10.50;82.70;;;;;;5017002;28;20129;-90
2020/12/20 12:42:45;;;;;;;7.18;3.45;;;10.50;82.70;;;;;;4985471;28;20026;-92
2020/12/20 12:45:17;;;;;;;7.13;3.33;;;10.50;82.60;;;;;;5002443;28;20379;-91
2020/12/20 12:47:43;;;;;;;8.60;3.20;;;10.50;82.60;;;;;;5001678;28;20049;-91
2020/12/20 12:50:09;;;;;;;6.68;2.80;;;10.50;82.70;;;;;;5000453;28;20030;-88
2020/12/20 12:52:35;;;;;;;8.98;2.83;;;10.50;82.70;;;;;;4999062;28;20527;-92
2020/12/20 12:55:02;;;;;;;5.35;3.00;;;10.50;82.70;;;;;;4998250;28;20018;-91
2020/12/20 12:57:29;;;;;;;7.20;3.67;;;10.50;82.60;;;;;;4997412;28;20080;-91
2020/12/20 12:59:55;;;;;;;7.47;3.15;;;10.60;82.80;;;;;;4995705;28;20056;-91
2020/12/20 13:02:21;;;;;;;4.30;3.15;;;10.60;82.70;;;;;;4996412;28;20030;-92
2020/12/20 13:04:47;;;;;;;9.02;2.88;;;10.70;82.90;;;;;;4992860;28;20037;-90
2020/12/20 13:07:13;;;;;;;4.22;3.00;;;10.70;82.70;;;;;;4988932;28;20034;-85
2020/12/20 13:09:39;;;;;;;6.75;2.60;;;10.70;82.60;;;;;;5004104;28;20029;-84